Time;durP1;ratioP1;P1;durP2;ratioP2;P2;SDS_P1;SDS_P2;PMS_P1;PMS_P2;Temp;Humidity;BMP_temperature;BMP_pressure;BME280_temperature;BME280_humidity;BME280_pressure;Samples;Min_cycle;Max_cycle;Signal;HPM_P1;HPM_P2
2022/08/27 00:01:50;;;;;;;21.83;12.23;;;17.60;99.90;;;;;;5001134;28;20041;-65
2022/08/27 00:04:16;;;;;;;22.25;13.02;;;17.60;99.90;;;;;;5005562;28;20070;-65
2022/08/27 00:06:41;;;;;;;25.17;13.15;;;17.60;99.90;;;;;;4989927;28;20062;-67
2022/08/27 00:09:07;;;;;;;28.52;14.02;;;17.60;99.90;;;;;;5010398;28;20057;-64
2022/08/27 00:11:34;;;;;;;28.08;14.40;;;17.60;99.90;;;;;;5006678;28;20030;-65
2022/08/27 00:14:00;;;;;;;29.25;15.35;;;17.50;99.90;;;;;;5010444;28;20033;-66
2022/08/27 00:16:26;;;;;;;28.30;15.18;;;17.50;99.90;;;;;;5002707;28;20018;-65
2022/08/27 00:18:53;;;;;;;29.70;15.80;;;17.60;99.90;;;;;;5007284;28;20030;-65
2022/08/27 00:21:19;;;;;;;28.08;15.57;;;17.60;99.90;;;;;;5006945;28;20029;-68
2022/08/27 00:23:45;;;;;;;29.10;15.98;;;17.50;99.90;;;;;;4990988;28;20084;-65
2022/08/27 00:26:12;;;;;;;29.33;16.15;;;17.50;99.90;;;;;;5010900;28;20096;-66
2022/08/27 00:28:39;;;;;;;32.00;17.05;;;17.50;99.90;;;;;;5009322;28;20030;-65
2022/08/27 00:31:05;;;;;;;32.67;17.77;;;17.50;99.90;;;;;;5001341;28;20076;-66
2022/08/27 00:33:31;;;;;;;37.63;19.55;;;17.50;99.90;;;;;;5005550;28;20046;-65
2022/08/27 00:35:57;;;;;;;32.60;18.58;;;17.60;99.90;;;;;;5023614;28;20026;-65
2022/08/27 00:38:23;;;;;;;37.95;19.50;;;17.60;99.90;;;;;;5003173;28;20038;-71
2022/08/27 00:40:50;;;;;;;39.88;20.58;;;17.50;99.90;;;;;;5008869;28;20042;-65
2022/08/27 00:43:28;;;;;;;40.20;21.38;;;17.60;99.90;;;;;;5002851;28;20026;-64
2022/08/27 00:46:01;;;;;;;42.92;22.67;;;17.60;99.90;;;;;;5009981;28;20026;-64
2022/08/27 00:48:30;;;;;;;38.92;22.17;;;17.60;99.90;;;;;;5002980;28;20022;-69
2022/08/27 00:50:56;;;;;;;49.05;21.17;;;17.60;99.90;;;;;;5003523;28;20042;-65
2022/08/27 00:53:25;;;;;;;41.70;21.38;;;17.60;99.90;;;;;;4993394;28;20173;-71
2022/08/27 00:56:07;;;;;;;36.72;21.05;;;17.60;99.90;;;;;;5010031;28;20692;-64
2022/08/27 00:58:39;;;;;;;38.30;20.67;;;17.70;99.90;;;;;;5009061;28;20030;-65
2022/08/27 01:01:07;;;;;;;37.53;20.02;;;17.80;99.90;;;;;;5008086;28;20033;-65
2022/08/27 01:03:34;;;;;;;43.00;20.98;;;17.80;99.90;;;;;;5015752;28;20038;-67
2022/08/27 01:06:03;;;;;;;37.17;21.35;;;17.80;99.90;;;;;;5001940;28;20041;-65
2022/08/27 01:08:35;;;;;;;35.83;19.25;;;17.80;99.90;;;;;;4988883;28;20492;-65
2022/08/27 01:11:01;;;;;;;35.50;19.73;;;17.80;99.90;;;;;;4998781;28;20369;-63
2022/08/27 01:13:30;;;;;;;36.83;19.92;;;17.80;99.90;;;;;;5006618;28;20030;-65
2022/08/27 01:15:58;;;;;;;37.60;20.13;;;17.80;99.90;;;;;;5014071;28;20038;-63
2022/08/27 01:18:30;;;;;;;36.55;19.30;;;17.80;99.90;;;;;;5007237;28;20053;-70
2022/08/27 01:21:04;;;;;;;34.60;19.17;;;17.80;99.90;;;;;;5008915;28;20030;-64
2022/08/27 01:23:36;;;;;;;41.25;19.73;;;17.80;99.90;;;;;;5028380;28;20422;-69
2022/08/27 01:26:03;;;;;;;34.33;19.77;;;17.70;99.90;;;;;;5018552;28;20485;-66
2022/08/27 01:28:30;;;;;;;34.10;19.98;;;17.70;99.90;;;;;;4995938;28;20701;-65
2022/08/27 01:30:56;;;;;;;37.72;19.75;;;17.70;99.90;;;;;;4996459;28;20048;-70
2022/08/27 01:33:22;;;;;;;32.95;18.08;;;17.80;99.90;;;;;;4999023;28;20053;-68
2022/08/27 01:35:49;;;;;;;33.65;19.30;;;17.80;99.90;;;;;;4995355;28;20034;-65
2022/08/27 01:38:18;;;;;;;32.83;18.38;;;17.80;99.90;;;;;;5015511;28;20033;-64
2022/08/27 01:40:44;;;;;;;35.35;18.52;;;17.70;99.90;;;;;;5017934;28;20292;-65
2022/08/27 01:43:10;;;;;;;32.17;17.05;;;17.70;99.90;;;;;;5029115;28;20029;-65
2022/08/27 01:45:38;;;;;;;28.90;16.90;;;17.70;99.90;;;;;;5011486;28;20479;-65
2022/08/27 01:48:06;;;;;;;30.73;16.95;;;17.80;99.90;;;;;;4989798;28;20088;-64
2022/08/27 01:50:35;;;;;;;36.70;20.02;;;17.80;99.90;;;;;;4997562;28;20534;-64
2022/08/27 01:53:07;;;;;;;37.97;20.58;;;17.90;99.90;;;;;;5007948;28;20529;-66
2022/08/27 01:55:34;;;;;;;42.85;21.85;;;18.00;99.90;;;;;;5001215;28;20148;-68
2022/08/27 01:57:59;;;;;;;37.72;20.88;;;18.00;99.90;;;;;;5026330;28;20037;-67
2022/08/27 02:00:29;;;;;;;38.55;21.08;;;18.00;99.90;;;;;;5013276;28;20036;-71
2022/08/27 02:02:56;;;;;;;43.37;22.13;;;18.00;99.90;;;;;;5006295;28;20059;-65
2022/08/27 02:05:22;;;;;;;44.08;21.58;;;18.00;99.90;;;;;;4994626;28;20165;-65
2022/08/27 02:07:48;;;;;;;40.50;21.83;;;18.10;99.90;;;;;;5003521;28;20919;-65
2022/08/27 02:10:18;;;;;;;47.10;25.17;;;18.10;99.90;;;;;;5005948;28;20109;-65
2022/08/27 02:12:44;;;;;;;46.63;25.08;;;18.10;99.90;;;;;;5007399;28;20105;-64
2022/08/27 02:15:10;;;;;;;46.45;25.17;;;18.20;99.90;;;;;;5012035;28;20112;-65
2022/08/27 02:17:36;;;;;;;52.55;25.08;;;18.10;99.90;;;;;;5012085;28;20033;-64
2022/08/27 02:20:04;;;;;;;47.78;25.23;;;18.20;99.90;;;;;;5000953;28;20026;-64
2022/08/27 02:22:30;;;;;;;44.42;24.60;;;18.10;99.90;;;;;;5010434;28;20111;-65
2022/08/27 02:24:55;;;;;;;52.40;25.50;;;18.20;99.90;;;;;;4989914;28;20089;-64
2022/08/27 02:27:21;;;;;;;51.03;26.98;;;18.10;99.90;;;;;;5008383;28;20491;-65
2022/08/27 02:29:46;;;;;;;50.67;25.30;;;18.10;99.90;;;;;;5017271;28;20044;-64
2022/08/27 02:32:13;;;;;;;45.15;24.40;;;18.10;99.90;;;;;;5020650;28;20054;-64
2022/08/27 02:34:39;;;;;;;46.83;26.15;;;18.10;99.90;;;;;;5016629;28;20049;-67
2022/08/27 02:37:06;;;;;;;46.30;25.50;;;18.10;99.90;;;;;;5014245;28;20030;-64
2022/08/27 02:39:32;;;;;;;43.88;23.52;;;18.10;99.90;;;;;;5011969;28;20029;-65
2022/08/27 02:41:58;;;;;;;50.83;25.95;;;18.10;99.90;;;;;;5009913;28;20038;-66
2022/08/27 02:44:24;;;;;;;50.20;23.05;;;18.10;99.90;;;;;;4999308;28;20376;-70
2022/08/27 02:46:49;;;;;;;55.05;24.63;;;18.10;99.90;;;;;;5012479;28;20037;-65
2022/08/27 02:49:16;;;;;;;45.92;23.88;;;18.20;99.90;;;;;;5011053;28;20034;-64
2022/08/27 02:51:41;;;;;;;46.13;24.27;;;18.30;99.90;;;;;;5029906;28;20037;-65
2022/08/27 02:54:07;;;;;;;42.47;23.83;;;18.30;99.90;;;;;;5012506;28;20237;-64
2022/08/27 02:56:33;;;;;;;47.97;24.83;;;18.40;99.90;;;;;;5006141;28;20037;-65
2022/08/27 02:58:58;;;;;;;48.03;23.42;;;18.40;99.90;;;;;;5011959;28;20026;-65
2022/08/27 03:01:24;;;;;;;45.33;24.48;;;18.40;99.90;;;;;;5012820;28;20034;-65
2022/08/27 03:03:50;;;;;;;48.47;25.00;;;18.40;99.90;;;;;;5010921;28;20622;-65
2022/08/27 03:06:16;;;;;;;44.90;24.05;;;18.40;99.90;;;;;;5007813;28;20054;-64
2022/08/27 03:08:42;;;;;;;55.40;27.23;;;18.40;99.90;;;;;;4999316;28;20109;-65
2022/08/27 03:11:07;;;;;;;56.42;25.95;;;18.40;99.90;;;;;;5007919;28;20136;-64
2022/08/27 03:13:37;;;;;;;53.35;28.13;;;18.30;99.90;;;;;;5009125;28;20041;-65
2022/08/27 03:16:04;;;;;;;57.45;29.27;;;18.20;99.90;;;;;;5003240;28;20040;-67
2022/08/27 03:18:31;;;;;;;61.40;30.17;;;18.20;99.90;;;;;;5023836;28;20040;-71
2022/08/27 03:20:59;;;;;;;58.63;30.02;;;18.10;99.90;;;;;;5002845;28;20034;-64
2022/08/27 03:23:28;;;;;;;65.20;30.75;;;18.10;99.90;;;;;;5009618;28;20026;-64
2022/08/27 03:25:57;;;;;;;71.18;32.00;;;18.00;99.90;;;;;;5013732;28;20103;-65
2022/08/27 03:28:26;;;;;;;79.57;34.22;;;18.00;99.90;;;;;;5009530;28;20204;-64
2022/08/27 03:30:57;;;;;;;87.32;35.53;;;18.00;99.90;;;;;;5008734;28;20119;-65
2022/08/27 03:33:23;;;;;;;88.32;35.97;;;17.90;99.90;;;;;;5013389;28;20087;-65
2022/08/27 03:35:49;;;;;;;75.50;34.22;;;17.90;99.90;;;;;;5016583;28;20523;-65
2022/08/27 03:38:15;;;;;;;92.68;36.00;;;17.90;99.90;;;;;;5018960;28;20034;-66
2022/08/27 03:40:42;;;;;;;93.75;37.35;;;17.90;99.90;;;;;;5000608;28;20491;-65
2022/08/27 03:43:10;;;;;;;81.20;35.40;;;17.90;99.90;;;;;;5009893;28;20034;-65
2022/08/27 03:45:36;;;;;;;82.57;32.53;;;17.90;99.90;;;;;;5010069;28;20030;-65
2022/08/27 03:48:02;;;;;;;86.20;35.28;;;17.90;99.90;;;;;;5018127;28;20464;-64
2022/08/27 03:50:27;;;;;;;91.75;36.38;;;17.90;99.90;;;;;;5012443;28;20046;-65
2022/08/27 03:52:53;;;;;;;99.63;37.55;;;17.90;99.90;;;;;;4996674;28;20764;-64
2022/08/27 03:55:19;;;;;;;94.05;37.65;;;17.90;99.90;;;;;;5013560;28;20053;-65
2022/08/27 03:57:44;;;;;;;113.75;40.40;;;17.90;99.90;;;;;;5009115;28;20041;-66
2022/08/27 04:00:13;;;;;;;105.68;41.65;;;17.90;99.90;;;;;;5006965;28;20034;-63
2022/08/27 04:02:41;;;;;;;111.68;42.50;;;17.90;99.90;;;;;;5008172;28;20042;-64
2022/08/27 04:05:10;;;;;;;128.38;45.75;;;17.90;99.90;;;;;;5013325;28;20381;-64
2022/08/27 04:07:36;;;;;;;119.55;42.35;;;17.90;99.90;;;;;;5009992;28;20018;-69
2022/08/27 04:10:02;;;;;;;112.00;42.47;;;17.80;99.90;;;;;;5009183;28;20042;-65
2022/08/27 04:12:28;;;;;;;101.70;39.80;;;17.80;99.90;;;;;;5004230;28;20038;-65
2022/08/27 04:14:53;;;;;;;106.60;38.47;;;17.80;99.90;;;;;;5008449;28;20599;-66
2022/08/27 04:17:19;;;;;;;102.10;38.88;;;17.90;99.90;;;;;;5012835;28;20030;-65
2022/08/27 04:19:45;;;;;;;94.75;39.05;;;17.90;99.90;;;;;;4981385;28;20045;-64
2022/08/27 04:22:11;;;;;;;98.68;39.47;;;17.90;99.90;;;;;;5005984;28;20057;-64
2022/08/27 04:24:37;;;;;;;91.70;38.90;;;17.90;99.90;;;;;;5005688;28;20393;-65
2022/08/27 04:27:04;;;;;;;98.85;38.67;;;17.90;99.90;;;;;;4997647;28;20096;-69
2022/08/27 04:29:30;;;;;;;90.25;38.50;;;18.00;99.90;;;;;;5002102;28;20053;-65
2022/08/27 04:31:56;;;;;;;94.32;37.88;;;18.00;99.90;;;;;;4989631;28;20121;-64
2022/08/27 04:34:22;;;;;;;96.75;38.13;;;17.90;99.90;;;;;;5009859;28;20034;-64
2022/08/27 04:36:49;;;;;;;106.95;38.88;;;17.90;99.90;;;;;;5002126;28;20060;-64
2022/08/27 04:39:15;;;;;;;91.05;38.22;;;18.00;99.90;;;;;;5003543;28;20492;-66
2022/08/27 04:41:41;;;;;;;103.03;38.72;;;18.00;99.90;;;;;;5019305;28;20718;-64
2022/08/27 04:44:09;;;;;;;105.25;39.83;;;18.00;99.90;;;;;;5012932;28;20025;-67
2022/08/27 04:46:37;;;;;;;100.30;40.33;;;18.00;99.90;;;;;;4988160;28;20374;-71
2022/08/27 04:49:07;;;;;;;104.60;40.28;;;18.10;99.90;;;;;;5011425;28;20120;-65
2022/08/27 04:51:33;;;;;;;102.75;39.38;;;18.00;99.90;;;;;;5013510;28;20034;-65
2022/08/27 04:54:01;;;;;;;114.97;40.83;;;18.00;99.90;;;;;;5012767;28;20021;-64
2022/08/27 04:56:28;;;;;;;85.63;36.35;;;18.00;99.90;;;;;;5019600;28;20048;-63
2022/08/27 04:58:54;;;;;;;100.53;40.35;;;18.10;99.90;;;;;;5006337;28;20896;-71
2022/08/27 05:01:26;;;;;;;125.07;42.50;;;18.10;99.90;;;;;;5010257;28;20030;-66
2022/08/27 05:03:53;;;;;;;119.82;42.28;;;18.10;99.90;;;;;;5003226;28;20033;-64
2022/08/27 05:06:20;;;;;;;113.10;40.83;;;18.10;99.90;;;;;;5005429;28;20049;-71
2022/08/27 05:08:48;;;;;;;123.22;43.60;;;18.10;99.90;;;;;;5012132;28;20018;-64
2022/08/27 05:11:16;;;;;;;119.03;42.28;;;18.20;99.90;;;;;;5013699;28;20045;-64
2022/08/27 05:13:42;;;;;;;129.38;42.60;;;18.10;99.90;;;;;;5027249;28;20112;-65
2022/08/27 05:16:11;;;;;;;130.23;42.45;;;18.20;99.90;;;;;;5015989;28;20069;-65
2022/08/27 05:18:38;;;;;;;124.25;44.45;;;18.20;99.90;;;;;;5008185;28;20030;-70
2022/08/27 05:21:04;;;;;;;130.68;42.72;;;18.20;99.90;;;;;;5011502;28;20504;-65
2022/08/27 05:23:30;;;;;;;127.13;43.60;;;18.20;99.90;;;;;;5003697;28;20111;-65
2022/08/27 05:25:56;;;;;;;139.65;45.13;;;18.20;99.90;;;;;;5004448;28;20034;-63
2022/08/27 05:28:24;;;;;;;136.55;45.13;;;18.20;99.90;;;;;;5002750;28;20037;-64
2022/08/27 05:30:52;;;;;;;137.45;44.50;;;18.20;99.90;;;;;;5006449;28;20487;-66
2022/08/27 05:33:21;;;;;;;164.18;45.35;;;18.20;99.90;;;;;;5017474;28;20282;-64
2022/08/27 05:35:53;;;;;;;146.85;44.83;;;18.20;99.90;;;;;;5011182;28;20084;-63
2022/08/27 05:38:19;;;;;;;161.57;45.35;;;18.10;99.90;;;;;;5010198;28;20042;-63
2022/08/27 05:40:49;;;;;;;189.13;45.72;;;18.10;99.90;;;;;;5014964;28;20045;-63
2022/08/27 05:43:16;;;;;;;273.15;49.58;;;18.10;99.90;;;;;;5023186;28;20044;-64
2022/08/27 05:45:44;;;;;;;171.00;45.08;;;18.10;99.90;;;;;;4994466;28;20030;-63
2022/08/27 05:48:10;;;;;;;214.30;46.08;;;18.00;99.90;;;;;;5008024;28;20108;-62
2022/08/27 05:50:41;;;;;;;200.05;45.90;;;18.00;99.90;;;;;;4995976;28;20038;-62
2022/08/27 05:53:08;;;;;;;237.27;46.88;;;18.10;99.90;;;;;;5020083;28;20040;-62
2022/08/27 05:55:40;;;;;;;277.73;47.63;;;18.10;99.90;;;;;;5018752;28;20899;-62
2022/08/27 05:58:07;;;;;;;327.85;51.28;;;18.10;99.90;;;;;;5012908;28;20025;-62
2022/08/27 06:03:20;;;;;;;187.50;46.10;;;18.20;99.90;;;;;;5006321;28;20122;-64
2022/08/27 06:05:45;;;;;;;224.85;48.47;;;18.10;99.90;;;;;;5010741;28;20093;-63
2022/08/27 06:08:11;;;;;;;214.50;47.70;;;18.10;99.90;;;;;;5012828;28;20037;-63
2022/08/27 06:10:41;;;;;;;201.38;47.33;;;18.10;99.90;;;;;;5013638;28;20070;-63
2022/08/27 06:13:08;;;;;;;173.90;47.00;;;18.10;99.90;;;;;;5031044;28;20022;-62
2022/08/27 06:15:34;;;;;;;162.82;46.15;;;18.20;99.90;;;;;;4996118;28;20117;-64
2022/08/27 06:18:00;;;;;;;165.10;46.47;;;18.30;99.90;;;;;;5010513;28;20141;-66
2022/08/27 06:20:26;;;;;;;139.55;44.22;;;18.30;99.90;;;;;;5012322;28;20050;-63
2022/08/27 06:22:52;;;;;;;136.15;47.17;;;18.30;99.90;;;;;;5029466;28;20079;-65
2022/08/27 06:25:17;;;;;;;131.20;44.67;;;18.30;99.90;;;;;;5015320;28;20061;-64
2022/08/27 06:27:43;;;;;;;139.27;44.50;;;18.40;99.90;;;;;;5010490;28;20048;-68
2022/08/27 06:30:09;;;;;;;117.38;44.75;;;18.40;99.90;;;;;;5010021;28;20073;-64
2022/08/27 06:32:35;;;;;;;126.47;44.80;;;18.30;99.90;;;;;;5025136;28;20441;-64
2022/08/27 06:35:00;;;;;;;127.13;44.08;;;18.40;99.90;;;;;;5010504;28;20064;-64
2022/08/27 06:37:26;;;;;;;110.13;42.60;;;18.40;99.90;;;;;;5010885;28;20440;-63
2022/08/27 06:39:52;;;;;;;111.65;42.85;;;18.40;99.90;;;;;;4996251;28;20033;-62
2022/08/27 06:42:18;;;;;;;114.70;43.67;;;18.40;99.90;;;;;;5011362;28;20266;-64
2022/08/27 06:44:43;;;;;;;108.68;43.05;;;18.40;99.90;;;;;;5009605;28;20029;-68
2022/08/27 06:47:09;;;;;;;103.90;42.80;;;18.50;99.90;;;;;;5012088;28;20088;-64
2022/08/27 06:49:38;;;;;;;100.35;42.72;;;18.50;99.90;;;;;;5009490;28;20046;-65
2022/08/27 06:52:04;;;;;;;112.50;41.70;;;18.50;99.90;;;;;;5009643;28;20391;-64
2022/08/27 06:54:31;;;;;;;104.95;42.70;;;18.60;99.90;;;;;;5013349;28;20064;-64
2022/08/27 06:56:58;;;;;;;102.30;41.97;;;18.60;99.90;;;;;;5026260;28;20045;-62
2022/08/27 06:59:24;;;;;;;100.68;42.70;;;18.60;99.90;;;;;;5011212;28;20033;-64
2022/08/27 07:01:50;;;;;;;97.80;43.10;;;18.60;99.90;;;;;;5008358;28;20038;-65
2022/08/27 07:04:24;;;;;;;106.25;44.67;;;18.60;99.90;;;;;;5011800;28;20065;-62
2022/08/27 07:06:50;;;;;;;106.13;42.55;;;18.70;99.90;;;;;;5010350;28;20036;-64
2022/08/27 07:09:16;;;;;;;96.22;42.42;;;18.80;99.90;;;;;;5008563;28;20042;-62
2022/08/27 07:11:42;;;;;;;92.93;41.65;;;18.80;99.90;;;;;;4989376;28;20388;-64
2022/08/27 07:14:09;;;;;;;100.28;42.60;;;18.80;99.90;;;;;;5009906;28;20440;-64
2022/08/27 07:16:35;;;;;;;98.05;42.40;;;18.90;99.90;;;;;;4997820;28;20530;-66
2022/08/27 07:19:02;;;;;;;95.22;42.42;;;19.00;99.90;;;;;;5008886;28;20387;-67
2022/08/27 07:21:29;;;;;;;91.72;41.10;;;19.00;99.90;;;;;;5025065;28;20026;-62
2022/08/27 07:23:58;;;;;;;91.80;41.20;;;19.00;99.90;;;;;;5009235;28;20053;-63
2022/08/27 07:26:24;;;;;;;93.13;40.75;;;19.00;99.90;;;;;;5011136;28;20125;-63
2022/08/27 07:28:50;;;;;;;94.15;40.78;;;19.10;99.90;;;;;;5018800;28;20025;-64
2022/08/27 07:31:20;;;;;;;91.82;40.30;;;19.10;99.90;;;;;;5030835;28;20053;-63
2022/08/27 07:33:46;;;;;;;95.55;42.42;;;19.20;99.90;;;;;;5021423;28;20058;-70
2022/08/27 07:36:12;;;;;;;84.57;39.45;;;19.20;99.90;;;;;;5009699;28;20072;-63
2022/08/27 07:38:38;;;;;;;80.07;40.35;;;19.20;99.90;;;;;;5007814;28;20496;-66
2022/08/27 07:41:09;;;;;;;82.20;38.80;;;19.20;99.90;;;;;;5004782;28;20030;-64
2022/08/27 07:46:20;;;;;;;75.53;36.83;;;19.30;99.90;;;;;;4994264;28;20029;-65
2022/08/27 07:48:47;;;;;;;82.57;39.30;;;19.40;99.90;;;;;;4999153;28;20038;-69
2022/08/27 07:51:19;;;;;;;79.03;38.35;;;19.50;99.90;;;;;;5018586;28;20120;-64
2022/08/27 07:53:45;;;;;;;80.22;38.10;;;19.60;99.90;;;;;;5015300;28;20045;-71
2022/08/27 07:56:12;;;;;;;73.13;37.10;;;19.60;99.90;;;;;;5010072;28;20045;-72
2022/08/27 07:58:39;;;;;;;73.82;37.50;;;19.70;99.90;;;;;;5011446;28;20082;-64
2022/08/27 08:01:05;;;;;;;73.60;35.67;;;19.70;99.90;;;;;;5013792;28;20029;-64
2022/08/27 08:03:31;;;;;;;72.10;36.28;;;19.70;99.90;;;;;;5010432;28;20025;-64
2022/08/27 08:06:02;;;;;;;72.25;37.13;;;19.70;99.90;;;;;;5007157;28;20030;-64
2022/08/27 08:08:28;;;;;;;62.05;32.83;;;19.70;99.90;;;;;;5000317;28;20026;-64
2022/08/27 08:10:57;;;;;;;74.03;35.97;;;19.70;99.90;;;;;;4993949;28;20373;-65
2022/08/27 08:13:23;;;;;;;75.55;34.40;;;19.70;99.90;;;;;;5010587;28;20639;-66
2022/08/27 08:15:49;;;;;;;75.57;37.25;;;19.80;99.90;;;;;;5009933;28;20124;-71
2022/08/27 08:18:14;;;;;;;75.50;35.85;;;19.90;99.90;;;;;;5009498;28;20036;-65
2022/08/27 08:20:40;;;;;;;69.55;35.72;;;20.00;99.90;;;;;;5010153;28;20034;-65
2022/08/27 08:23:06;;;;;;;61.80;32.35;;;20.10;99.90;;;;;;5009617;28;20030;-65
2022/08/27 08:25:32;;;;;;;65.47;32.55;;;20.10;99.90;;;;;;5009370;28;20051;-65
2022/08/27 08:27:59;;;;;;;66.22;34.35;;;20.10;99.90;;;;;;5009466;28;20046;-67
2022/08/27 08:30:25;;;;;;;64.68;32.72;;;20.20;99.90;;;;;;5009782;28;20096;-65
2022/08/27 08:32:51;;;;;;;69.75;34.45;;;20.20;99.90;;;;;;5009433;28;20091;-69
2022/08/27 08:35:17;;;;;;;64.85;32.63;;;20.30;99.90;;;;;;5010176;28;20033;-65
2022/08/27 08:37:43;;;;;;;59.55;30.73;;;20.40;99.90;;;;;;5010050;28;20029;-66
2022/08/27 08:40:20;;;;;;;57.92;30.75;;;20.50;99.90;;;;;;5007836;28;20034;-65
2022/08/27 08:42:51;;;;;;;62.72;32.33;;;20.60;99.90;;;;;;5008615;28;20034;-64
2022/08/27 08:45:24;;;;;;;69.88;34.40;;;20.60;99.90;;;;;;5010020;28;20113;-63
2022/08/27 08:47:55;;;;;;;65.88;33.13;;;20.60;99.90;;;;;;5009404;28;20033;-70
2022/08/27 08:50:41;;;;;;;64.57;33.65;;;20.60;99.90;;;;;;5009285;28;20033;-65
2022/08/27 08:53:23;;;;;;;61.03;31.80;;;20.60;99.90;;;;;;5007712;28;20081;-63
2022/08/27 08:55:57;;;;;;;70.95;33.35;;;20.50;99.90;;;;;;4995815;28;20480;-70
2022/08/27 08:58:38;;;;;;;84.43;38.05;;;20.40;99.90;;;;;;5014754;28;20029;-65
2022/08/27 09:01:05;;;;;;;;;;;20.30;99.90;;;;;;5015936;28;20084;-65
2022/08/27 09:03:35;;;;;;;72.63;35.30;;;20.10;99.90;;;;;;5015391;28;19917;-64
2022/08/27 09:06:02;;;;;;;61.20;32.63;;;20.10;99.90;;;;;;5021193;28;20033;-65
2022/08/27 09:08:33;;;;;;;54.45;27.15;;;19.90;99.90;;;;;;5017030;28;20107;-64
2022/08/27 09:11:15;;;;;;;48.20;25.48;;;19.80;99.90;;;;;;5006264;28;20568;-68
2022/08/27 09:13:47;;;;;;;52.85;25.23;;;19.60;99.90;;;;;;4990855;28;20136;-66
2022/08/27 09:16:13;;;;;;;47.80;26.88;;;19.60;99.90;;;;;;5020485;28;20038;-65
2022/08/27 09:18:41;;;;;;;52.17;27.98;;;19.60;99.90;;;;;;5006080;28;20034;-65
2022/08/27 09:21:19;;;;;;;54.58;26.40;;;19.70;99.90;;;;;;5006431;28;20729;-65
2022/08/27 09:24:04;;;;;;;53.17;26.42;;;19.60;99.90;;;;;;5002724;28;20400;-67
2022/08/27 09:26:34;;;;;;;50.97;26.73;;;19.50;99.90;;;;;;4994980;28;20041;-64
2022/08/27 09:29:18;;;;;;;48.22;24.48;;;19.40;99.90;;;;;;5009464;28;20034;-66
2022/08/27 09:32:06;;;;;;;53.40;26.05;;;19.40;99.90;;;;;;5010951;28;20037;-68
2022/08/27 09:34:37;;;;;;;54.35;27.70;;;19.30;99.90;;;;;;5010847;28;20123;-67
2022/08/27 09:37:11;;;;;;;63.83;30.95;;;19.30;99.90;;;;;;5011655;28;20053;-66
2022/08/27 09:39:43;;;;;;;48.63;20.88;;;19.20;99.90;;;;;;5031553;28;20488;-65
2022/08/27 09:42:21;;;;;;;32.38;17.02;;;19.00;99.90;;;;;;5026577;28;20038;-65
2022/08/27 09:44:47;;;;;;;27.88;13.48;;;18.90;99.90;;;;;;5011441;28;20030;-64
2022/08/27 09:47:14;;;;;;;22.65;13.15;;;18.70;99.90;;;;;;5017796;28;20582;-64
2022/08/27 09:49:40;;;;;;;22.17;11.85;;;18.60;99.90;;;;;;5026054;28;20077;-65
2022/08/27 09:52:07;;;;;;;20.13;10.68;;;18.50;99.90;;;;;;5009954;28;20034;-64
2022/08/27 09:54:44;;;;;;;17.67;10.20;;;18.40;99.90;;;;;;5008493;28;20029;-65
2022/08/27 09:57:12;;;;;;;21.67;9.80;;;18.40;99.90;;;;;;5009882;28;20728;-64
2022/08/27 09:59:51;;;;;;;18.30;9.63;;;18.30;99.90;;;;;;5011544;28;20038;-66
2022/08/27 10:02:23;;;;;;;14.77;9.07;;;18.40;99.90;;;;;;5005678;28;20021;-63
2022/08/27 10:04:55;;;;;;;27.65;7.43;;;18.40;99.90;;;;;;5007565;28;20038;-65
2022/08/27 10:07:54;;;;;;;15.43;7.63;;;18.20;99.90;;;;;;5012057;28;20030;-63
2022/08/27 10:10:50;;;;;;;14.55;8.15;;;18.10;99.90;;;;;;5009212;28;20125;-65
2022/08/27 10:13:15;;;;;;;11.68;5.38;;;18.00;99.90;;;;;;5026409;28;20196;-62
2022/08/27 10:16:02;;;;;;;7.03;4.78;;;17.90;99.90;;;;;;5011715;28;20692;-65
2022/08/27 10:18:51;;;;;;;10.68;5.28;;;17.90;99.90;;;;;;5011070;28;20037;-65
2022/08/27 10:21:43;;;;;;;8.43;4.78;;;17.90;99.90;;;;;;5008904;28;20080;-63
2022/08/27 10:24:17;;;;;;;8.00;4.07;;;17.80;99.90;;;;;;5014576;28;20037;-65
2022/08/27 10:27:10;;;;;;;7.00;4.40;;;17.70;99.90;;;;;;5009998;28;20045;-65
2022/08/27 10:30:03;;;;;;;5.40;3.47;;;17.80;99.90;;;;;;4972725;28;20100;-65
2022/08/27 10:33:07;;;;;;;6.38;4.10;;;17.80;99.90;;;;;;5008952;28;20062;-65
2022/08/27 10:36:02;;;;;;;6.30;3.88;;;17.90;99.90;;;;;;4990004;28;20038;-66
2022/08/27 10:38:54;;;;;;;12.13;4.68;;;17.80;99.90;;;;;;4947020;28;20043;-65
2022/08/27 10:41:23;;;;;;;6.88;3.88;;;17.90;99.90;;;;;;4997019;28;20049;-65
2022/08/27 10:44:21;;;;;;;5.38;3.30;;;17.80;99.90;;;;;;5004664;28;20115;-64
2022/08/27 10:47:27;;;;;;;5.47;3.35;;;17.80;99.90;;;;;;4974871;28;20049;-64
2022/08/27 10:50:07;;;;;;;6.95;3.20;;;17.70;99.90;;;;;;4977058;28;20049;-65
2022/08/27 10:52:51;;;;;;;5.82;3.15;;;17.80;99.90;;;;;;5011780;28;20101;-64
2022/08/27 10:55:44;;;;;;;6.78;2.85;;;17.80;99.90;;;;;;4991531;28;20107;-65
2022/08/27 10:58:54;;;;;;;6.32;2.97;;;17.90;99.90;;;;;;5007943;28;20030;-64
2022/08/27 11:01:36;;;;;;;4.80;2.80;;;18.00;99.90;;;;;;5016462;28;20033;-64
2022/08/27 11:04:23;;;;;;;4.25;2.60;;;18.00;99.90;;;;;;5018498;28;20046;-64
2022/08/27 11:07:21;;;;;;;4.30;2.60;;;18.20;99.90;;;;;;5031533;28;20490;-65
2022/08/27 11:10:03;;;;;;;5.00;2.92;;;18.30;99.90;;;;;;4960315;28;20050;-67
2022/08/27 11:12:35;;;;;;;4.70;2.90;;;18.40;99.90;;;;;;5008953;28;20042;-65
2022/08/27 11:15:21;;;;;;;4.43;3.03;;;18.50;99.90;;;;;;5010373;28;20050;-69
2022/08/27 11:18:23;;;;;;;4.20;2.55;;;18.50;99.90;;;;;;5005685;28;21197;-64
2022/08/27 11:21:09;;;;;;;4.60;2.92;;;18.60;99.90;;;;;;4999551;28;20818;-68
2022/08/27 11:23:53;;;;;;;6.97;3.05;;;18.60;99.90;;;;;;5009511;28;20025;-66
2022/08/27 11:26:18;;;;;;;4.38;2.85;;;18.70;99.90;;;;;;4999172;28;20738;-65
2022/08/27 11:28:59;;;;;;;4.82;3.05;;;18.80;99.90;;;;;;5008448;28;20037;-63
2022/08/27 11:31:40;;;;;;;5.07;2.88;;;18.90;99.90;;;;;;5004605;28;20132;-65
2022/08/27 11:34:20;;;;;;;4.65;2.85;;;18.90;99.90;;;;;;5007197;28;20046;-64
2022/08/27 11:37:11;;;;;;;4.07;2.80;;;18.80;99.90;;;;;;5000383;28;20383;-63
2022/08/27 11:40:07;;;;;;;5.88;2.97;;;18.80;99.90;;;;;;5004351;28;20463;-62
2022/08/27 11:42:48;;;;;;;4.47;2.88;;;18.80;99.90;;;;;;5007312;28;20037;-65
2022/08/27 11:45:14;;;;;;;;;;;18.80;99.90;;;;;;5005283;28;20069;-64
2022/08/27 11:47:49;;;;;;;8.07;3.28;;;18.80;99.90;;;;;;5010501;28;20003;-64
2022/08/27 11:50:18;;;;;;;7.07;3.63;;;18.80;99.90;;;;;;5004420;28;20050;-65
2022/08/27 11:53:05;;;;;;;5.13;3.78;;;18.80;99.90;;;;;;5008562;28;20048;-65
2022/08/27 11:55:37;;;;;;;6.90;3.05;;;18.80;99.90;;;;;;5012744;28;20026;-64
2022/08/27 11:58:16;;;;;;;4.93;3.42;;;18.80;99.90;;;;;;5008057;28;20042;-67
2022/08/27 12:00:44;;;;;;;8.82;3.92;;;18.70;99.90;;;;;;5006670;28;20030;-64
2022/08/27 12:03:21;;;;;;;5.47;3.60;;;18.70;99.90;;;;;;5008228;28;20038;-65
2022/08/27 12:06:02;;;;;;;6.47;3.80;;;18.70;99.90;;;;;;5009916;28;20022;-64
2022/08/27 12:08:31;;;;;;;8.20;3.70;;;18.70;99.90;;;;;;5008451;28;20026;-64
2022/08/27 12:11:10;;;;;;;4.63;3.53;;;18.70;99.90;;;;;;5006992;28;20366;-64
2022/08/27 12:14:13;;;;;;;5.53;3.50;;;18.60;99.90;;;;;;4998854;28;20033;-65
2022/08/27 12:17:07;;;;;;;6.22;3.83;;;18.80;99.90;;;;;;5010296;28;20041;-65
2022/08/27 12:19:55;;;;;;;5.03;3.50;;;19.10;99.90;;;;;;5005447;28;20073;-61
2022/08/27 12:25:32;;;;;;;6.03;3.70;;;19.20;99.90;;;;;;4990611;28;20084;-63
2022/08/27 12:28:08;;;;;;;5.70;4.10;;;19.10;99.90;;;;;;4990665;28;20113;-66
2022/08/27 12:30:37;;;;;;;6.18;3.55;;;19.20;99.90;;;;;;4992259;28;20034;-64
2022/08/27 12:33:38;;;;;;;5.95;3.65;;;19.20;99.90;;;;;;5008798;28;20062;-68
2022/08/27 12:36:08;;;;;;;;;;;19.20;99.90;;;;;;5009834;28;20503;-67
2022/08/27 12:38:52;;;;;;;6.07;4.00;;;19.30;99.90;;;;;;5010143;28;19910;-63
2022/08/27 12:41:45;;;;;;;7.13;3.97;;;19.30;99.90;;;;;;5009385;28;20069;-64
2022/08/27 12:44:23;;;;;;;6.20;3.70;;;19.20;99.90;;;;;;5004639;28;20057;-63
2022/08/27 12:46:51;;;;;;;8.05;4.25;;;19.20;99.90;;;;;;5007627;28;20512;-64
2022/08/27 12:49:26;;;;;;;9.35;4.72;;;19.10;99.90;;;;;;5009116;28;20038;-63
2022/08/27 12:51:54;;;;;;;7.40;4.75;;;19.20;99.90;;;;;;5008364;28;20105;-65
2022/08/27 12:54:26;;;;;;;7.57;5.47;;;19.30;99.90;;;;;;5008818;28;20073;-65
2022/08/27 12:56:54;;;;;;;21.83;9.23;;;19.30;99.90;;;;;;5002927;28;20061;-64
2022/08/27 12:59:35;;;;;;;13.65;7.10;;;19.20;99.90;;;;;;5006404;28;20068;-65